sensor_id;sensor_type;location;lat;lon;timestamp;pressure;altitude;pressure_sealevel;temperature;humidity
70589;BME280;58152;49.202;18.744;2023-08-06T00:01:47;96016.47;;;21.08;73.60
70589;BME280;58152;49.202;18.744;2023-08-06T00:04:13;96016.47;;;21.08;73.60
70589;BME280;58152;49.202;18.744;2023-08-06T00:06:38;96010.28;;;21.07;73.47
70589;BME280;58152;49.202;18.744;2023-08-06T00:09:04;96007.97;;;21.04;73.83
70589;BME280;58152;49.202;18.744;2023-08-06T00:11:29;96001.94;;;21.02;73.83
70589;BME280;58152;49.202;18.744;2023-08-06T00:13:54;95999.63;;;20.99;73.73
70589;BME280;58152;49.202;18.744;2023-08-06T00:16:20;96007.78;;;20.97;73.98
70589;BME280;58152;49.202;18.744;2023-08-06T00:18:45;96013.59;;;20.93;74.09
70589;BME280;58152;49.202;18.744;2023-08-06T00:21:10;96015.63;;;20.91;74.22
70589;BME280;58152;49.202;18.744;2023-08-06T00:23:37;96019.28;;;20.90;74.13
70589;BME280;58152;49.202;18.744;2023-08-06T00:26:03;96011.94;;;20.92;74.19
70589;BME280;58152;49.202;18.744;2023-08-06T00:28:28;96013.59;;;20.93;74.36
70589;BME280;58152;49.202;18.744;2023-08-06T00:30:54;96010.94;;;20.93;74.73
70589;BME280;58152;49.202;18.744;2023-08-06T00:33:21;95997.28;;;20.88;74.59
70589;BME280;58152;49.202;18.744;2023-08-06T00:35:47;95992.78;;;20.88;74.68
70589;BME280;58152;49.202;18.744;2023-08-06T00:38:12;95985.47;;;20.90;74.88
70589;BME280;58152;49.202;18.744;2023-08-06T00:40:37;95969.28;;;20.92;74.93
70589;BME280;58152;49.202;18.744;2023-08-06T00:43:03;95953.81;;;20.95;74.78
70589;BME280;58152;49.202;18.744;2023-08-06T00:45:29;95936.16;;;20.94;74.88
70589;BME280;58152;49.202;18.744;2023-08-06T00:47:55;95942.47;;;20.93;74.71
70589;BME280;58152;49.202;18.744;2023-08-06T00:50:21;95931.47;;;20.80;74.98
70589;BME280;58152;49.202;18.744;2023-08-06T00:52:48;95923.47;;;20.80;75.16
70589;BME280;58152;49.202;18.744;2023-08-06T00:55:15;95935.97;;;20.79;75.01
70589;BME280;58152;49.202;18.744;2023-08-06T00:57:41;95932.97;;;20.74;75.46
70589;BME280;58152;49.202;18.744;2023-08-06T01:00:07;95924.97;;;20.74;75.38
70589;BME280;58152;49.202;18.744;2023-08-06T01:02:32;95918.00;;;20.73;75.36
70589;BME280;58152;49.202;18.744;2023-08-06T01:04:58;95910.00;;;20.73;75.31
70589;BME280;58152;49.202;18.744;2023-08-06T01:12:48;95881.50;;;20.74;75.59
70589;BME280;58152;49.202;18.744;2023-08-06T01:17:39;95874.72;;;20.71;75.84
70589;BME280;58152;49.202;18.744;2023-08-06T01:20:06;95868.69;;;20.69;75.60
70589;BME280;58152;49.202;18.744;2023-08-06T01:22:31;95857.03;;;20.70;75.70
70589;BME280;58152;49.202;18.744;2023-08-06T01:24:57;95852.53;;;20.71;75.93
70589;BME280;58152;49.202;18.744;2023-08-06T01:27:28;95855.56;;;20.68;75.73
70589;BME280;58152;49.202;18.744;2023-08-06T01:30:12;95852.72;;;20.61;75.68
70589;BME280;58152;49.202;18.744;2023-08-06T01:32:43;95835.56;;;20.55;75.85
70589;BME280;58152;49.202;18.744;2023-08-06T01:35:10;95836.56;;;20.54;75.64
70589;BME280;58152;49.202;18.744;2023-08-06T01:37:37;95844.75;;;20.53;75.89
70589;BME280;58152;49.202;18.744;2023-08-06T01:40:10;95843.41;;;20.49;76.04
70589;BME280;58152;49.202;18.744;2023-08-06T01:42:37;95841.03;;;20.46;76.01
70589;BME280;58152;49.202;18.744;2023-08-06T01:45:03;95839.72;;;20.42;76.22
70589;BME280;58152;49.202;18.744;2023-08-06T01:47:28;95840.72;;;20.41;76.21
70589;BME280;58152;49.202;18.744;2023-08-06T01:49:53;95834.56;;;20.40;76.36
70589;BME280;58152;49.202;18.744;2023-08-06T01:52:19;95838.38;;;20.38;76.20
70589;BME280;58152;49.202;18.744;2023-08-06T01:54:44;95837.88;;;20.34;76.50
70589;BME280;58152;49.202;18.744;2023-08-06T01:57:10;95840.53;;;20.34;76.33
70589;BME280;58152;49.202;18.744;2023-08-06T01:59:35;95844.38;;;20.31;76.38
70589;BME280;58152;49.202;18.744;2023-08-06T02:02:00;95847.69;;;20.34;76.34
70589;BME280;58152;49.202;18.744;2023-08-06T02:04:26;95839.56;;;20.35;76.70
70589;BME280;58152;49.202;18.744;2023-08-06T02:06:51;95842.38;;;20.34;76.62
70589;BME280;58152;49.202;18.744;2023-08-06T02:09:17;95848.19;;;20.37;76.96
70589;BME280;58152;49.202;18.744;2023-08-06T02:11:42;95838.72;;;20.35;76.80
70589;BME280;58152;49.202;18.744;2023-08-06T02:14:07;95839.56;;;20.35;76.98
70589;BME280;58152;49.202;18.744;2023-08-06T02:16:33;95853.00;;;20.34;77.16
70589;BME280;58152;49.202;18.744;2023-08-06T02:18:58;95849.38;;;20.35;76.88
70589;BME280;58152;49.202;18.744;2023-08-06T02:21:23;95850.03;;;20.37;76.87
70589;BME280;58152;49.202;18.744;2023-08-06T02:23:49;95844.69;;;20.37;76.84
70589;BME280;58152;49.202;18.744;2023-08-06T02:26:14;95843.53;;;20.31;77.07
70589;BME280;58152;49.202;18.744;2023-08-06T02:28:39;95843.38;;;20.33;77.22
70589;BME280;58152;49.202;18.744;2023-08-06T02:31:05;95843.38;;;20.33;77.04
70589;BME280;58152;49.202;18.744;2023-08-06T02:33:32;95842.53;;;20.32;77.04
70589;BME280;58152;49.202;18.744;2023-08-06T02:36:01;95838.03;;;20.33;77.00
70589;BME280;58152;49.202;18.744;2023-08-06T02:38:28;95839.69;;;20.34;77.30
70589;BME280;58152;49.202;18.744;2023-08-06T02:40:54;95832.72;;;20.33;77.51
70589;BME280;58152;49.202;18.744;2023-08-06T02:43:20;95837.22;;;20.32;77.51
70589;BME280;58152;49.202;18.744;2023-08-06T02:45:45;95833.91;;;20.30;77.97
70589;BME280;58152;49.202;18.744;2023-08-06T02:48:10;95834.03;;;20.28;77.70
70589;BME280;58152;49.202;18.744;2023-08-06T02:50:40;95829.41;;;20.30;78.10
70589;BME280;58152;49.202;18.744;2023-08-06T02:53:06;95831.22;;;20.30;77.90
70589;BME280;58152;49.202;18.744;2023-08-06T02:55:32;95813.41;;;20.22;77.52
70589;BME280;58152;49.202;18.744;2023-08-06T02:57:59;95809.75;;;20.23;77.70
70589;BME280;58152;49.202;18.744;2023-08-06T03:00:25;95809.09;;;20.21;78.15
70589;BME280;58152;49.202;18.744;2023-08-06T03:02:50;95808.78;;;20.16;78.13
70589;BME280;58152;49.202;18.744;2023-08-06T03:05:16;95814.09;;;20.16;78.27
70589;BME280;58152;49.202;18.744;2023-08-06T03:07:41;95815.06;;;20.15;78.44
70589;BME280;58152;49.202;18.744;2023-08-06T03:10:07;95820.75;;;20.12;78.60
70589;BME280;58152;49.202;18.744;2023-08-06T03:12:32;95814.41;;;20.05;79.16
70589;BME280;58152;49.202;18.744;2023-08-06T03:14:58;95808.25;;;20.04;79.22
70589;BME280;58152;49.202;18.744;2023-08-06T03:17:23;95795.25;;;20.01;79.09
70589;BME280;58152;49.202;18.744;2023-08-06T03:19:48;95805.75;;;20.03;79.47
70589;BME280;58152;49.202;18.744;2023-08-06T03:22:14;95793.59;;;20.00;79.62
70589;BME280;58152;49.202;18.744;2023-08-06T03:24:39;95785.28;;;20.03;79.50
70589;BME280;58152;49.202;18.744;2023-08-06T03:27:05;95772.81;;;20.04;79.56
70589;BME280;58152;49.202;18.744;2023-08-06T03:29:30;95770.97;;;20.04;79.37
70589;BME280;58152;49.202;18.744;2023-08-06T03:31:56;95766.66;;;20.03;79.45
70589;BME280;58152;49.202;18.744;2023-08-06T03:34:21;95768.97;;;20.06;79.54
70589;BME280;58152;49.202;18.744;2023-08-06T03:36:47;95771.81;;;20.05;79.61
70589;BME280;58152;49.202;18.744;2023-08-06T03:39:12;95766.50;;;20.05;79.73
70589;BME280;58152;49.202;18.744;2023-08-06T03:41:39;95756.84;;;20.04;79.59
70589;BME280;58152;49.202;18.744;2023-08-06T03:44:04;95751.34;;;20.05;79.86
70589;BME280;58152;49.202;18.744;2023-08-06T03:46:30;95745.50;;;20.02;79.92
70589;BME280;58152;49.202;18.744;2023-08-06T03:48:59;95749.19;;;20.01;79.95
70589;BME280;58152;49.202;18.744;2023-08-06T03:51:24;95751.84;;;20.01;79.93
70589;BME280;58152;49.202;18.744;2023-08-06T03:53:49;95749.34;;;19.99;80.04
70589;BME280;58152;49.202;18.744;2023-08-06T03:56:15;95745.69;;;20.00;79.98
70589;BME280;58152;49.202;18.744;2023-08-06T03:58:40;95746.69;;;19.99;79.90
70589;BME280;58152;49.202;18.744;2023-08-06T04:01:06;95741.19;;;20.01;79.78
70589;BME280;58152;49.202;18.744;2023-08-06T04:03:31;95740.03;;;19.95;80.01
70589;BME280;58152;49.202;18.744;2023-08-06T04:05:56;95738.53;;;19.93;79.98
70589;BME280;58152;49.202;18.744;2023-08-06T04:08:22;95733.38;;;19.91;80.27
70589;BME280;58152;49.202;18.744;2023-08-06T04:10:53;95743.53;;;19.88;80.49
70589;BME280;58152;49.202;18.744;2023-08-06T04:13:19;95735.06;;;19.84;80.79
70589;BME280;58152;49.202;18.744;2023-08-06T04:15:45;95728.56;;;19.87;80.51
70589;BME280;58152;49.202;18.744;2023-08-06T04:18:11;95728.56;;;19.87;80.73
70589;BME280;58152;49.202;18.744;2023-08-06T04:20:46;95729.88;;;19.91;80.03
70589;BME280;58152;49.202;18.744;2023-08-06T04:23:14;95725.72;;;19.88;80.28
70589;BME280;58152;49.202;18.744;2023-08-06T04:25:39;95721.25;;;19.89;79.96
70589;BME280;58152;49.202;18.744;2023-08-06T04:28:05;95720.25;;;19.90;80.27
70589;BME280;58152;49.202;18.744;2023-08-06T04:30:30;95718.41;;;19.90;80.37
70589;BME280;58152;49.202;18.744;2023-08-06T04:32:59;95722.22;;;19.88;80.24
70589;BME280;58152;49.202;18.744;2023-08-06T04:35:24;95723.06;;;19.88;80.35
70589;BME280;58152;49.202;18.744;2023-08-06T04:37:50;95720.25;;;19.90;80.39
70589;BME280;58152;49.202;18.744;2023-08-06T04:40:15;95712.78;;;19.85;80.48
70589;BME280;58152;49.202;18.744;2023-08-06T04:42:40;95715.06;;;19.88;80.27
70589;BME280;58152;49.202;18.744;2023-08-06T04:45:06;95708.94;;;19.88;80.41
70589;BME280;58152;49.202;18.744;2023-08-06T04:47:32;95708.28;;;19.86;80.31
70589;BME280;58152;49.202;18.744;2023-08-06T04:49:57;95706.75;;;19.83;80.60
70589;BME280;58152;49.202;18.744;2023-08-06T04:52:23;95701.63;;;19.82;80.49
70589;BME280;58152;49.202;18.744;2023-08-06T04:54:48;95709.28;;;19.85;80.91
70589;BME280;58152;49.202;18.744;2023-08-06T04:57:13;95697.94;;;19.83;80.76
70589;BME280;58152;49.202;18.744;2023-08-06T04:59:39;95701.63;;;19.82;81.06
70589;BME280;58152;49.202;18.744;2023-08-06T05:02:04;95697.31;;;19.80;81.17
70589;BME280;58152;49.202;18.744;2023-08-06T05:04:30;95702.94;;;19.77;81.24
70589;BME280;58152;49.202;18.744;2023-08-06T05:06:55;95696.97;;;19.75;81.25
70589;BME280;58152;49.202;18.744;2023-08-06T05:09:20;95702.94;;;19.77;81.34
70589;BME280;58152;49.202;18.744;2023-08-06T05:11:46;95696.47;;;19.80;81.50
70589;BME280;58152;49.202;18.744;2023-08-06T05:14:12;95691.16;;;19.80;81.09
70589;BME280;58152;49.202;18.744;2023-08-06T05:16:37;95684.00;;;19.80;81.38
70589;BME280;58152;49.202;18.744;2023-08-06T05:19:02;95683.50;;;19.85;81.31
70589;BME280;58152;49.202;18.744;2023-08-06T05:21:28;95688.66;;;19.87;81.22
70589;BME280;58152;49.202;18.744;2023-08-06T05:23:54;95678.00;;;19.87;81.14
70589;BME280;58152;49.202;18.744;2023-08-06T05:26:19;95680.00;;;19.85;81.31
70589;BME280;58152;49.202;18.744;2023-08-06T05:28:45;95685.81;;;19.88;81.15
70589;BME280;58152;49.202;18.744;2023-08-06T05:31:11;95673.50;;;19.87;81.54
70589;BME280;58152;49.202;18.744;2023-08-06T05:33:36;95676.16;;;19.87;81.42
70589;BME280;58152;49.202;18.744;2023-08-06T05:36:02;95675.50;;;19.85;81.58
70589;BME280;58152;49.202;18.744;2023-08-06T05:38:27;95673.50;;;19.87;81.57
70589;BME280;58152;49.202;18.744;2023-08-06T05:40:52;95676.34;;;19.86;81.27
70589;BME280;58152;49.202;18.744;2023-08-06T05:43:18;95672.69;;;19.87;81.67
70589;BME280;58152;49.202;18.744;2023-08-06T05:45:49;95671.03;;;19.86;81.64
70589;BME280;58152;49.202;18.744;2023-08-06T05:48:14;95671.19;;;19.84;81.50
70589;BME280;58152;49.202;18.744;2023-08-06T05:50:40;95665.88;;;19.84;81.31
70589;BME280;58152;49.202;18.744;2023-08-06T05:53:05;95661.38;;;19.85;81.45
70589;BME280;58152;49.202;18.744;2023-08-06T05:55:31;95660.69;;;19.83;81.62
70589;BME280;58152;49.202;18.744;2023-08-06T05:57:58;95668.53;;;19.84;81.78
70589;BME280;58152;49.202;18.744;2023-08-06T06:00:23;95664.53;;;19.80;82.00
70589;BME280;58152;49.202;18.744;2023-08-06T06:02:48;95655.56;;;19.73;81.94
70589;BME280;58152;49.202;18.744;2023-08-06T06:05:14;95649.59;;;19.71;82.07
70589;BME280;58152;49.202;18.744;2023-08-06T06:07:39;95658.22;;;19.73;82.25
70589;BME280;58152;49.202;18.744;2023-08-06T06:10:05;95648.59;;;19.72;81.96
70589;BME280;58152;49.202;18.744;2023-08-06T06:12:31;95649.41;;;19.72;82.20
70589;BME280;58152;49.202;18.744;2023-08-06T06:14:56;95642.56;;;19.70;82.10
70589;BME280;58152;49.202;18.744;2023-08-06T06:17:21;95641.59;;;19.71;82.17
70589;BME280;58152;49.202;18.744;2023-08-06T06:19:47;95632.13;;;19.68;82.26
70589;BME280;58152;49.202;18.744;2023-08-06T06:22:13;95644.72;;;19.74;82.22
70589;BME280;58152;49.202;18.744;2023-08-06T06:24:39;95630.59;;;19.74;82.19
70589;BME280;58152;49.202;18.744;2023-08-06T06:27:04;95633.13;;;19.75;82.19
70589;BME280;58152;49.202;18.744;2023-08-06T06:29:30;95633.13;;;19.75;82.18
70589;BME280;58152;49.202;18.744;2023-08-06T06:31:55;95634.59;;;19.78;82.27
70589;BME280;58152;49.202;18.744;2023-08-06T06:34:21;95633.13;;;19.75;82.21
70589;BME280;58152;49.202;18.744;2023-08-06T06:36:47;95632.94;;;19.77;82.07
70589;BME280;58152;49.202;18.744;2023-08-06T06:39:12;95628.13;;;19.80;82.12
70589;BME280;58152;49.202;18.744;2023-08-06T06:41:38;95626.13;;;19.83;82.37
70589;BME280;58152;49.202;18.744;2023-08-06T06:44:03;95615.47;;;19.83;82.29
70589;BME280;58152;49.202;18.744;2023-08-06T06:46:29;95620.63;;;19.84;82.60
70589;BME280;58152;49.202;18.744;2023-08-06T06:48:54;95620.63;;;19.84;82.41
70589;BME280;58152;49.202;18.744;2023-08-06T06:51:20;95625.28;;;19.82;82.51
70589;BME280;58152;49.202;18.744;2023-08-06T06:53:45;95617.63;;;19.79;82.71
70589;BME280;58152;49.202;18.744;2023-08-06T06:56:10;95618.13;;;19.83;82.61
70589;BME280;58152;49.202;18.744;2023-08-06T06:58:36;95619.63;;;19.85;82.28
70589;BME280;58152;49.202;18.744;2023-08-06T07:01:02;95617.13;;;19.84;82.31
70589;BME280;58152;49.202;18.744;2023-08-06T07:03:27;95619.97;;;19.82;82.27
70589;BME280;58152;49.202;18.744;2023-08-06T07:05:57;95618.81;;;19.85;82.36
70589;BME280;58152;49.202;18.744;2023-08-06T07:08:22;95617.97;;;19.84;82.41
70589;BME280;58152;49.202;18.744;2023-08-06T07:10:48;95611.81;;;19.84;82.29
70589;BME280;58152;49.202;18.744;2023-08-06T07:13:14;95600.50;;;19.82;82.25
70589;BME280;58152;49.202;18.744;2023-08-06T07:15:41;95608.47;;;19.90;82.01
70589;BME280;58152;49.202;18.744;2023-08-06T07:18:07;95612.81;;;19.91;82.18
70589;BME280;58152;49.202;18.744;2023-08-06T07:20:32;95606.66;;;19.90;82.10
70589;BME280;58152;49.202;18.744;2023-08-06T07:23:00;95605.97;;;19.88;82.52
70589;BME280;58152;49.202;18.744;2023-08-06T07:25:46;95614.44;;;19.92;82.55
70589;BME280;58152;49.202;18.744;2023-08-06T07:28:15;95614.63;;;19.90;82.60
70589;BME280;58152;49.202;18.744;2023-08-06T07:34:13;95605.50;;;19.85;83.33
70589;BME280;58152;49.202;18.744;2023-08-06T07:37:03;95603.66;;;19.85;82.83
70589;BME280;58152;49.202;18.744;2023-08-06T07:39:40;95608.66;;;19.80;81.45
70589;BME280;58152;49.202;18.744;2023-08-06T07:43:00;95606.69;;;19.66;81.15
70589;BME280;58152;49.202;18.744;2023-08-06T07:45:25;95601.34;;;19.58;80.58
70589;BME280;58152;49.202;18.744;2023-08-06T07:47:52;95610.84;;;19.60;80.65
70589;BME280;58152;49.202;18.744;2023-08-06T07:50:17;95609.66;;;19.54;80.45
70589;BME280;58152;49.202;18.744;2023-08-06T07:52:45;95605.31;;;19.45;80.20
70589;BME280;58152;49.202;18.744;2023-08-06T07:55:11;95615.97;;;19.45;80.21
70589;BME280;58152;49.202;18.744;2023-08-06T07:57:36;95601.69;;;19.38;80.07
70589;BME280;58152;49.202;18.744;2023-08-06T08:00:03;95613.97;;;19.23;79.59
70589;BME280;58152;49.202;18.744;2023-08-06T08:02:29;95617.59;;;19.14;79.47
70589;BME280;58152;49.202;18.744;2023-08-06T08:04:55;95623.09;;;19.12;79.79
70589;BME280;58152;49.202;18.744;2023-08-06T08:07:20;95623.38;;;19.01;79.26
70589;BME280;58152;49.202;18.744;2023-08-06T08:09:46;95628.38;;;18.96;78.93
70589;BME280;58152;49.202;18.744;2023-08-06T08:12:13;95614.88;;;18.81;78.64
70589;BME280;58152;49.202;18.744;2023-08-06T08:14:39;95629.69;;;18.84;78.98
70589;BME280;58152;49.202;18.744;2023-08-06T08:17:04;95616.88;;;18.79;78.92
70589;BME280;58152;49.202;18.744;2023-08-06T08:19:40;95630.78;;;18.73;78.50
70589;BME280;58152;49.202;18.744;2023-08-06T08:22:05;95623.75;;;18.64;78.43
70589;BME280;58152;49.202;18.744;2023-08-06T08:24:31;95622.09;;;18.63;78.34
70589;BME280;58152;49.202;18.744;2023-08-06T08:26:59;95621.94;;;18.56;78.17
70589;BME280;58152;49.202;18.744;2023-08-06T08:29:44;95628.56;;;18.52;78.37
70589;BME280;58152;49.202;18.744;2023-08-06T08:32:09;95622.56;;;18.50;78.69
70589;BME280;58152;49.202;18.744;2023-08-06T08:34:35;95621.38;;;18.44;78.88
70589;BME280;58152;49.202;18.744;2023-08-06T08:37:00;95640.25;;;18.41;79.00
70589;BME280;58152;49.202;18.744;2023-08-06T08:39:26;95636.78;;;18.33;78.74
70589;BME280;58152;49.202;18.744;2023-08-06T08:42:04;95631.41;;;18.24;79.06
70589;BME280;58152;49.202;18.744;2023-08-06T08:44:50;95624.22;;;18.17;79.16
70589;BME280;58152;49.202;18.744;2023-08-06T08:47:17;95633.72;;;18.19;79.47
70589;BME280;58152;49.202;18.744;2023-08-06T08:49:43;95634.38;;;18.21;79.55
70589;BME280;58152;49.202;18.744;2023-08-06T08:52:21;95626.88;;;18.17;79.34
70589;BME280;58152;49.202;18.744;2023-08-06T08:54:48;95626.53;;;18.12;79.21
70589;BME280;58152;49.202;18.744;2023-08-06T08:57:18;95632.50;;;18.14;79.48
70589;BME280;58152;49.202;18.744;2023-08-06T08:59:44;95626.22;;;18.15;79.64
70589;BME280;58152;49.202;18.744;2023-08-06T09:02:11;95635.03;;;18.15;79.50
70589;BME280;58152;49.202;18.744;2023-08-06T09:04:39;95639.28;;;18.08;79.49
70589;BME280;58152;49.202;18.744;2023-08-06T09:07:08;95644.41;;;18.10;79.34
70589;BME280;58152;49.202;18.744;2023-08-06T09:09:36;95644.75;;;18.07;79.35
70589;BME280;58152;49.202;18.744;2023-08-06T09:12:13;95654.53;;;18.06;79.43
70589;BME280;58152;49.202;18.744;2023-08-06T09:14:39;95643.69;;;17.99;79.58
70589;BME280;58152;49.202;18.744;2023-08-06T09:17:05;95670.00;;;18.11;79.81
70589;BME280;58152;49.202;18.744;2023-08-06T09:19:31;95668.69;;;18.15;79.64
70589;BME280;58152;49.202;18.744;2023-08-06T09:21:56;95681.63;;;18.18;79.49
70589;BME280;58152;49.202;18.744;2023-08-06T09:24:22;95677.94;;;18.11;77.74
70589;BME280;58152;49.202;18.744;2023-08-06T09:26:48;95688.19;;;18.06;76.44
70589;BME280;58152;49.202;18.744;2023-08-06T09:29:24;95673.50;;;17.93;76.01
70589;BME280;58152;49.202;18.744;2023-08-06T09:31:58;95680.47;;;17.94;75.92
70589;BME280;58152;49.202;18.744;2023-08-06T09:34:23;95683.44;;;17.91;75.89
70589;BME280;58152;49.202;18.744;2023-08-06T09:36:51;95685.41;;;17.89;75.23
70589;BME280;58152;49.202;18.744;2023-08-06T09:42:42;95676.41;;;17.82;76.04
70589;BME280;58152;49.202;18.744;2023-08-06T09:45:10;95688.53;;;17.85;75.60
70589;BME280;58152;49.202;18.744;2023-08-06T09:47:44;95690.72;;;17.89;75.59
70589;BME280;58152;49.202;18.744;2023-08-06T09:50:19;95689.06;;;17.88;75.71
70589;BME280;58152;49.202;18.744;2023-08-06T09:52:46;95700.69;;;17.87;74.95
70589;BME280;58152;49.202;18.744;2023-08-06T09:55:12;95700.81;;;17.86;75.21
70589;BME280;58152;49.202;18.744;2023-08-06T09:57:42;95707.28;;;17.83;74.63
70589;BME280;58152;49.202;18.744;2023-08-06T10:00:15;95704.75;;;17.82;74.58
70589;BME280;58152;49.202;18.744;2023-08-06T10:02:42;95714.69;;;17.80;74.54
70589;BME280;58152;49.202;18.744;2023-08-06T10:05:10;95727.97;;;17.80;74.55
70589;BME280;58152;49.202;18.744;2023-08-06T10:07:36;95729.91;;;17.77;74.34
70589;BME280;58152;49.202;18.744;2023-08-06T10:10:07;95732.31;;;17.71;73.86
70589;BME280;58152;49.202;18.744;2023-08-06T10:12:35;95731.78;;;17.67;74.13
70589;BME280;58152;49.202;18.744;2023-08-06T10:15:05;95754.66;;;17.68;73.92
70589;BME280;58152;49.202;18.744;2023-08-06T10:17:36;95753.78;;;17.60;73.80
70589;BME280;58152;49.202;18.744;2023-08-06T10:20:07;95766.34;;;17.58;73.98
70589;BME280;58152;49.202;18.744;2023-08-06T10:22:33;95765.81;;;17.54;74.05
70589;BME280;58152;49.202;18.744;2023-08-06T10:25:00;95756.47;;;17.50;73.93
70589;BME280;58152;49.202;18.744;2023-08-06T10:30:42;95780.88;;;17.53;74.21
70589;BME280;58152;49.202;18.744;2023-08-06T10:33:14;95782.31;;;17.48;74.06
70589;BME280;58152;49.202;18.744;2023-08-06T10:35:43;95778.00;;;17.47;74.20
70589;BME280;58152;49.202;18.744;2023-08-06T10:38:19;95776.47;;;17.44;74.39
70589;BME280;58152;49.202;18.744;2023-08-06T10:41:03;95779.84;;;17.46;74.32
70589;BME280;58152;49.202;18.744;2023-08-06T10:43:29;95788.47;;;17.48;74.69
70589;BME280;58152;49.202;18.744;2023-08-06T10:45:58;95801.88;;;17.47;74.59
70589;BME280;58152;49.202;18.744;2023-08-06T10:48:40;95809.50;;;17.50;75.08
70589;BME280;58152;49.202;18.744;2023-08-06T10:51:12;95808.84;;;17.48;75.12
70589;BME280;58152;49.202;18.744;2023-08-06T10:53:38;95812.75;;;17.44;75.19
70589;BME280;58152;49.202;18.744;2023-08-06T10:56:27;95838.81;;;17.48;75.32
70589;BME280;58152;49.202;18.744;2023-08-06T10:58:56;95832.03;;;17.46;75.10
70589;BME280;58152;49.202;18.744;2023-08-06T11:01:23;95841.94;;;17.44;75.18
70589;BME280;58152;49.202;18.744;2023-08-06T11:03:49;95847.50;;;17.41;75.09
70589;BME280;58152;49.202;18.744;2023-08-06T11:06:21;95844.84;;;17.41;75.32
70589;BME280;58152;49.202;18.744;2023-08-06T11:08:51;95846.56;;;17.42;75.29
70589;BME280;58152;49.202;18.744;2023-08-06T11:11:20;95851.31;;;17.38;75.29
70589;BME280;58152;49.202;18.744;2023-08-06T11:13:47;95846.84;;;17.39;75.60
70589;BME280;58152;49.202;18.744;2023-08-06T11:16:22;95851.69;;;17.43;76.00
70589;BME280;58152;49.202;18.744;2023-08-06T11:18:53;95842.22;;;17.41;76.25
70589;BME280;58152;49.202;18.744;2023-08-06T11:21:28;95841.75;;;17.45;76.55
70589;BME280;58152;49.202;18.744;2023-08-06T11:24:04;95831.75;;;17.39;76.61
70589;BME280;58152;49.202;18.744;2023-08-06T11:26:43;95842.75;;;17.44;76.63
70589;BME280;58152;49.202;18.744;2023-08-06T11:29:17;95850.72;;;17.44;76.85
70589;BME280;58152;49.202;18.744;2023-08-06T11:31:42;95853.69;;;17.41;76.63
70589;BME280;58152;49.202;18.744;2023-08-06T11:34:18;95860.75;;;17.41;76.61
70589;BME280;58152;49.202;18.744;2023-08-06T11:36:44;95851.31;;;17.38;76.53
70589;BME280;58152;49.202;18.744;2023-08-06T11:39:10;95846.84;;;17.39;76.04
70589;BME280;58152;49.202;18.744;2023-08-06T11:41:41;95846.84;;;17.39;75.92
70589;BME280;58152;49.202;18.744;2023-08-06T11:54:36;95842.91;;;17.43;76.43
70589;BME280;58152;49.202;18.744;2023-08-06T11:57:04;95850.41;;;17.47;76.40
70589;BME280;58152;49.202;18.744;2023-08-06T12:00:07;95858.16;;;17.59;76.64
70589;BME280;58152;49.202;18.744;2023-08-06T12:03:17;95850.38;;;17.57;76.71
70589;BME280;58152;49.202;18.744;2023-08-06T12:06:03;95851.91;;;17.60;76.37
70589;BME280;58152;49.202;18.744;2023-08-06T12:09:10;95853.69;;;17.59;76.58
70589;BME280;58152;49.202;18.744;2023-08-06T12:12:04;95854.28;;;17.53;76.29
70589;BME280;58152;49.202;18.744;2023-08-06T12:14:51;95862.53;;;17.50;76.27
70589;BME280;58152;49.202;18.744;2023-08-06T12:21:01;95869.91;;;17.56;77.00
70589;BME280;58152;49.202;18.744;2023-08-06T13:07:59;95899.69;;;17.40;74.89
70589;BME280;58152;49.202;18.744;2023-08-06T13:24:40;95912.72;;;17.34;75.22
70589;BME280;58152;49.202;18.744;2023-08-06T14:13:05;95951.09;;;17.30;75.48
70589;BME280;58152;49.202;18.744;2023-08-06T14:15:41;95952.91;;;17.29;75.91
70589;BME280;58152;49.202;18.744;2023-08-06T14:18:18;95959.72;;;17.32;75.84
70589;BME280;58152;49.202;18.744;2023-08-06T14:20:52;95973.69;;;17.34;75.91
70589;BME280;58152;49.202;18.744;2023-08-06T14:23:32;95966.31;;;17.27;76.09
70589;BME280;58152;49.202;18.744;2023-08-06T14:26:11;95978.28;;;17.32;76.23
70589;BME280;58152;49.202;18.744;2023-08-06T14:29:05;95975.09;;;17.28;76.47
70589;BME280;58152;49.202;18.744;2023-08-06T14:31:50;95973.00;;;17.22;76.98
70589;BME280;58152;49.202;18.744;2023-08-06T14:34:27;95989.63;;;17.24;77.00
70589;BME280;58152;49.202;18.744;2023-08-06T14:37:03;95977.34;;;17.13;76.95
70589;BME280;58152;49.202;18.744;2023-08-06T14:39:30;95977.09;;;17.07;77.03
70589;BME280;58152;49.202;18.744;2023-08-06T14:41:56;95989.78;;;17.03;76.81
70589;BME280;58152;49.202;18.744;2023-08-06T14:44:21;95988.81;;;17.04;77.17
70589;BME280;58152;49.202;18.744;2023-08-06T14:46:50;95984.63;;;17.01;76.93
70589;BME280;58152;49.202;18.744;2023-08-06T14:49:15;96013.63;;;17.13;76.75
70589;BME280;58152;49.202;18.744;2023-08-06T14:51:41;96000.25;;;17.05;77.04
70589;BME280;58152;49.202;18.744;2023-08-06T14:54:06;96007.91;;;17.08;77.15
70589;BME280;58152;49.202;18.744;2023-08-06T14:56:32;96010.56;;;17.08;77.03
70589;BME280;58152;49.202;18.744;2023-08-06T14:58:57;96014.75;;;17.10;77.29
70589;BME280;58152;49.202;18.744;2023-08-06T15:01:22;96025.75;;;17.15;77.15
70589;BME280;58152;49.202;18.744;2023-08-06T15:34:48;96059.50;;;16.94;77.82
70589;BME280;58152;49.202;18.744;2023-08-06T15:51:43;96091.03;;;16.87;78.71
70589;BME280;58152;49.202;18.744;2023-08-06T15:54:34;96072.63;;;16.76;78.09
70589;BME280;58152;49.202;18.744;2023-08-06T15:56:59;96089.91;;;16.80;77.94
70589;BME280;58152;49.202;18.744;2023-08-06T15:59:27;96093.25;;;16.82;77.92